createdAt,value
2017-10-26T00:00:48.822Z,25.90
2017-10-26T00:03:17.921Z,23.53
2017-10-26T00:05:46.231Z,23.67
2017-10-26T00:08:14.547Z,25.63
2017-10-26T00:10:42.851Z,26.00
2017-10-26T00:13:11.195Z,27.60
2017-10-26T00:15:39.498Z,25.87
2017-10-26T00:18:07.846Z,22.50
2017-10-26T00:20:36.154Z,25.20
2017-10-26T00:23:04.502Z,25.43
2017-10-26T00:25:32.817Z,27.67
2017-10-26T00:28:01.122Z,25.97
2017-10-26T00:30:29.463Z,25.10
2017-10-26T00:32:58.530Z,26.23
2017-10-26T00:35:26.847Z,26.73
2017-10-26T00:37:55.202Z,24.90
2017-10-26T00:40:23.531Z,23.10
2017-10-26T00:42:51.945Z,24.70
2017-10-26T00:45:20.276Z,25.23
2017-10-26T00:47:48.590Z,25.17
2017-10-26T00:50:17.693Z,24.60
2017-10-26T00:52:46.780Z,23.60
2017-10-26T00:55:15.177Z,26.00
2017-10-26T00:57:44.262Z,24.97
2017-10-26T01:00:13.345Z,25.27
2017-10-26T01:02:41.744Z,25.03
2017-10-26T01:05:10.823Z,26.67
2017-10-26T01:07:39.156Z,23.83
2017-10-26T01:10:07.461Z,26.87
2017-10-26T01:12:35.779Z,23.40
2017-10-26T01:15:04.842Z,22.10
2017-10-26T01:17:33.177Z,24.67
2017-10-26T01:20:01.466Z,25.43
2017-10-26T01:22:29.808Z,26.03
2017-10-26T01:24:58.126Z,24.60
2017-10-26T01:27:26.468Z,25.03
2017-10-26T01:29:54.787Z,27.90
2017-10-26T01:32:23.186Z,26.67
2017-10-26T01:34:51.486Z,26.80
2017-10-26T01:37:20.682Z,27.07
2017-10-26T01:39:49.046Z,28.90
2017-10-26T01:42:18.130Z,25.70
2017-10-26T01:44:46.447Z,24.80
2017-10-26T01:47:14.753Z,26.53
2017-10-26T01:49:43.116Z,25.67
2017-10-26T01:52:11.414Z,26.07
2017-10-26T01:54:39.736Z,25.40
2017-10-26T01:57:08.806Z,25.83
2017-10-26T01:59:37.141Z,25.13
2017-10-26T02:02:05.450Z,25.97
2017-10-26T02:04:34.588Z,22.50
2017-10-26T02:07:03.650Z,26.57
2017-10-26T02:09:31.995Z,24.47
2017-10-26T02:12:01.074Z,26.30
2017-10-26T02:14:29.371Z,23.50
2017-10-26T02:16:57.700Z,26.57
2017-10-26T02:19:26.793Z,25.40
2017-10-26T02:21:55.997Z,26.60
2017-10-26T02:24:24.323Z,25.67
2017-10-26T02:26:52.751Z,28.47
2017-10-26T02:29:33.832Z,23.07
2017-10-26T02:32:02.204Z,26.77
2017-10-26T02:34:31.272Z,25.00
2017-10-26T02:36:59.671Z,26.50
2017-10-26T02:39:27.995Z,25.30
2017-10-26T02:41:56.331Z,26.47
2017-10-26T02:44:25.401Z,26.30
2017-10-26T02:46:53.782Z,27.00
2017-10-26T02:49:22.094Z,26.33
2017-10-26T02:51:50.455Z,24.20
2017-10-26T02:54:19.549Z,25.40
2017-10-26T02:56:48.652Z,27.03
2017-10-26T02:59:17.738Z,27.23
2017-10-26T03:01:46.807Z,25.30
2017-10-26T03:04:15.927Z,24.70
2017-10-26T03:06:44.999Z,25.53
2017-10-26T03:09:14.223Z,28.03
2017-10-26T03:11:43.293Z,28.43
2017-10-26T03:14:11.797Z,25.60
2017-10-26T03:16:40.872Z,26.17
2017-10-26T03:19:09.370Z,25.67
2017-10-26T03:21:37.702Z,26.13
2017-10-26T03:24:06.007Z,27.60
2017-10-26T03:26:34.337Z,25.23
2017-10-26T03:29:02.648Z,27.00
2017-10-26T03:31:30.983Z,26.30
2017-10-26T03:33:59.277Z,23.37
2017-10-26T03:36:27.607Z,25.70
2017-10-26T03:38:55.920Z,25.87
2017-10-26T03:41:24.253Z,24.70
2017-10-26T03:43:53.332Z,27.50
2017-10-26T03:46:22.424Z,26.03
2017-10-26T03:48:50.732Z,26.80
2017-10-26T03:51:19.083Z,27.03
2017-10-26T03:53:48.168Z,27.13
2017-10-26T03:56:16.479Z,27.67
2017-10-26T03:58:45.574Z,27.30
2017-10-26T04:01:13.888Z,25.20
2017-10-26T04:03:42.222Z,25.83
2017-10-26T04:06:10.533Z,26.77
2017-10-26T04:08:38.867Z,27.07
2017-10-26T04:11:07.950Z,24.77
2017-10-26T04:13:36.335Z,27.47
2017-10-26T04:16:04.631Z,27.37
2017-10-26T04:18:32.971Z,26.50
2017-10-26T04:21:01.308Z,25.77
2017-10-26T04:23:29.624Z,26.43
2017-10-26T04:25:57.968Z,27.27
2017-10-26T04:28:26.279Z,24.77
2017-10-26T04:30:54.624Z,25.63
2017-10-26T04:33:22.947Z,26.63
2017-10-26T04:35:51.275Z,26.80
2017-10-26T04:38:19.603Z,27.00
2017-10-26T04:40:47.944Z,24.23
2017-10-26T04:43:16.284Z,23.57
2017-10-26T04:45:44.621Z,22.83
2017-10-26T04:48:12.930Z,22.80
2017-10-26T04:50:41.289Z,22.30
2017-10-26T04:53:10.400Z,22.93
2017-10-26T04:55:39.467Z,23.43
2017-10-26T04:58:07.802Z,21.63
2017-10-26T05:00:36.118Z,21.80
2017-10-26T05:03:04.442Z,21.97
2017-10-26T05:05:32.752Z,20.10
2017-10-26T05:08:01.084Z,25.63
2017-10-26T05:10:29.428Z,23.57
2017-10-26T05:12:57.734Z,22.53
2017-10-26T05:15:26.825Z,21.87
2017-10-26T05:17:55.181Z,22.67
2017-10-26T05:20:24.298Z,21.80
2017-10-26T05:22:52.619Z,22.87
2017-10-26T05:25:20.951Z,21.17
2017-10-26T05:27:49.302Z,23.30
2017-10-26T05:30:17.637Z,25.77
2017-10-26T05:32:45.928Z,21.60
2017-10-26T05:35:14.302Z,23.03
2017-10-26T05:37:42.610Z,22.57
2017-10-26T05:40:10.911Z,25.30
2017-10-26T05:42:39.266Z,22.93
2017-10-26T05:45:07.567Z,22.87
2017-10-26T05:47:36.662Z,23.13
2017-10-26T05:50:05.739Z,23.33
2017-10-26T05:52:34.843Z,23.50
2017-10-26T05:55:03.929Z,23.00
2017-10-26T05:57:32.234Z,22.10
2017-10-26T06:00:00.618Z,23.80
2017-10-26T06:02:28.954Z,24.00
2017-10-26T06:04:57.254Z,22.00
2017-10-26T06:07:25.655Z,24.10
2017-10-26T06:09:53.935Z,22.77
2017-10-26T06:12:22.282Z,21.90
2017-10-26T06:14:50.594Z,23.83
2017-10-26T06:17:18.941Z,23.13
2017-10-26T06:19:51.535Z,23.73
2017-10-26T06:22:20.865Z,21.60
2017-10-26T06:24:49.293Z,22.07
2017-10-26T06:27:18.362Z,22.23
2017-10-26T06:29:47.490Z,22.40
2017-10-26T06:32:15.874Z,23.07
2017-10-26T06:34:44.216Z,23.13
2017-10-26T06:37:13.299Z,25.57
2017-10-26T06:39:41.615Z,24.27
2017-10-26T06:42:09.932Z,24.80
2017-10-26T06:44:38.247Z,22.67
2017-10-26T06:47:07.335Z,24.50
2017-10-26T06:49:35.643Z,23.50
2017-10-26T06:52:03.967Z,25.43
2017-10-26T06:54:32.286Z,27.17
2017-10-26T06:57:00.598Z,26.80
2017-10-26T06:59:28.943Z,25.20
2017-10-26T07:01:58.034Z,30.13
2017-10-26T07:04:27.136Z,26.37
2017-10-26T07:06:56.202Z,27.33
2017-10-26T07:09:24.556Z,29.47
2017-10-26T07:11:52.885Z,28.93
2017-10-26T07:14:21.259Z,27.43
2017-10-26T07:16:49.567Z,26.93
2017-10-26T07:19:17.904Z,28.67
2017-10-26T07:21:46.986Z,26.53
2017-10-26T07:24:15.316Z,26.30
2017-10-26T07:26:43.795Z,28.07
2017-10-26T07:29:13.244Z,27.27
2017-10-26T07:31:42.396Z,26.07
2017-10-26T07:34:10.773Z,25.50
2017-10-26T07:36:39.112Z,27.27
2017-10-26T07:39:08.177Z,27.60
2017-10-26T07:41:36.542Z,26.47
2017-10-26T07:44:04.856Z,26.23
2017-10-26T07:46:33.966Z,27.73
2017-10-26T07:49:02.309Z,27.67
2017-10-26T07:51:30.671Z,27.27
2017-10-26T07:53:59.038Z,29.70
2017-10-26T07:56:27.337Z,27.67
2017-10-26T07:58:55.707Z,26.10
2017-10-26T08:01:24.003Z,30.33
2017-10-26T08:03:52.379Z,28.67
2017-10-26T08:06:20.678Z,30.60
2017-10-26T08:08:49.623Z,30.27
2017-10-26T08:11:17.980Z,30.47
2017-10-26T08:13:46.431Z,30.00
2017-10-26T08:16:15.532Z,29.67
2017-10-26T08:18:43.869Z,31.30
2017-10-26T08:21:12.224Z,30.40
2017-10-26T08:23:40.535Z,28.57
2017-10-26T08:26:09.627Z,28.57
2017-10-26T08:28:38.823Z,29.20
2017-10-26T08:31:07.995Z,27.33
2017-10-26T08:33:36.359Z,28.50
2017-10-26T08:36:05.112Z,23.60
2017-10-26T08:38:33.435Z,26.70
2017-10-26T08:41:01.736Z,26.10
2017-10-26T08:43:30.118Z,24.70
2017-10-26T08:45:58.430Z,26.23
2017-10-26T08:48:26.798Z,27.40
2017-10-26T08:50:55.116Z,27.00
2017-10-26T08:53:23.480Z,26.53
2017-10-26T08:55:51.766Z,26.33
2017-10-26T08:58:20.107Z,26.60
2017-10-26T09:00:48.419Z,27.63
2017-10-26T09:03:16.770Z,30.90
2017-10-26T09:05:45.109Z,29.13
2017-10-26T09:08:15.042Z,28.63
2017-10-26T09:10:44.122Z,27.30
2017-10-26T09:13:14.074Z,27.53
2017-10-26T09:15:42.410Z,29.93
2017-10-26T09:18:10.754Z,27.63
2017-10-26T09:20:39.117Z,27.13
2017-10-26T09:23:07.442Z,24.87
2017-10-26T09:25:35.819Z,26.87
2017-10-26T09:28:04.171Z,27.43
2017-10-26T09:30:32.474Z,24.57
2017-10-26T09:33:06.526Z,27.37
2017-10-26T09:35:34.868Z,24.27
2017-10-26T09:38:03.211Z,25.83
2017-10-26T09:40:31.514Z,26.37
2017-10-26T09:42:59.849Z,26.37
2017-10-26T09:45:28.172Z,25.80
2017-10-26T09:47:56.506Z,30.57
2017-10-26T09:50:24.827Z,27.13
2017-10-26T09:52:53.914Z,29.10
2017-10-26T09:55:23.021Z,28.57
2017-10-26T09:57:52.124Z,29.20
2017-10-26T10:00:21.245Z,31.87
2017-10-26T10:02:49.542Z,29.70
2017-10-26T10:05:17.879Z,28.43
2017-10-26T10:07:46.198Z,29.67
2017-10-26T10:10:14.547Z,28.40
2017-10-26T10:12:42.874Z,29.10
2017-10-26T10:15:11.199Z,31.87
2017-10-26T10:17:39.777Z,29.77
2017-10-26T10:20:08.154Z,29.90
2017-10-26T10:22:36.508Z,29.53
2017-10-26T10:25:05.631Z,29.30
2017-10-26T10:27:33.970Z,31.90
2017-10-26T10:30:02.277Z,29.20
2017-10-26T10:32:30.616Z,31.47
2017-10-26T10:34:58.916Z,29.83
2017-10-26T10:37:27.409Z,27.87
2017-10-26T10:39:55.968Z,32.40
2017-10-26T10:42:24.356Z,30.60
2017-10-26T10:44:53.472Z,29.70
2017-10-26T10:47:22.115Z,28.43
2017-10-26T10:49:51.379Z,29.60
2017-10-26T10:52:19.733Z,30.10
2017-10-26T10:54:48.050Z,26.20
2017-10-26T10:57:16.488Z,29.27
2017-10-26T10:59:50.529Z,26.40
2017-10-26T11:02:19.073Z,28.67
2017-10-26T11:04:47.620Z,29.83
2017-10-26T11:07:16.170Z,27.47
2017-10-26T11:09:44.596Z,28.13
2017-10-26T11:12:13.680Z,27.07
2017-10-26T11:14:42.025Z,27.03
2017-10-26T11:17:10.408Z,26.90
2017-10-26T11:19:38.729Z,28.23
2017-10-26T11:22:07.843Z,28.17
2017-10-26T11:24:36.207Z,26.67
2017-10-26T11:27:05.315Z,26.87
2017-10-26T11:29:33.678Z,23.90
2017-10-26T11:32:02.071Z,24.83
2017-10-26T11:34:30.383Z,26.80
2017-10-26T11:36:58.767Z,25.57
2017-10-26T11:39:27.098Z,23.53
2017-10-26T11:41:56.172Z,27.20
2017-10-26T11:44:25.262Z,25.40
2017-10-26T11:46:54.350Z,23.97
2017-10-26T11:49:22.725Z,24.60
2017-10-26T11:51:51.040Z,25.57
2017-10-26T11:54:19.378Z,26.20
2017-10-26T11:56:48.516Z,27.50
2017-10-26T11:59:16.888Z,25.10
2017-10-26T12:01:45.219Z,26.80
2017-10-26T12:04:13.582Z,26.80
2017-10-26T12:06:41.887Z,29.13
2017-10-26T12:09:10.980Z,27.67
2017-10-26T12:11:40.166Z,38.10
2017-10-26T12:14:08.462Z,30.00
2017-10-26T12:16:36.798Z,29.60
2017-10-26T12:19:05.146Z,24.77
2017-10-26T12:21:33.523Z,23.23
2017-10-26T12:24:01.850Z,26.10
2017-10-26T12:26:30.159Z,24.50
2017-10-26T12:28:59.277Z,22.80
2017-10-26T12:31:27.593Z,25.03
2017-10-26T12:33:56.803Z,23.80
2017-10-26T12:36:25.095Z,26.00
2017-10-26T12:38:54.187Z,22.10
2017-10-26T12:41:23.314Z,25.30
2017-10-26T12:43:51.634Z,25.40
2017-10-26T12:46:19.961Z,24.30
2017-10-26T12:48:48.336Z,23.13
2017-10-26T12:51:17.413Z,30.90
2017-10-26T12:53:46.494Z,24.50
2017-10-26T12:56:14.843Z,27.83
2017-10-26T12:58:43.146Z,24.07
2017-10-26T13:01:11.492Z,24.97
2017-10-26T13:03:39.792Z,24.70
2017-10-26T13:06:08.123Z,21.90
2017-10-26T13:08:36.484Z,24.00
2017-10-26T13:11:04.845Z,23.50
2017-10-26T13:13:33.936Z,25.97
2017-10-26T13:16:03.147Z,25.07
2017-10-26T13:18:32.255Z,25.63
2017-10-26T13:21:00.564Z,25.37
2017-10-26T13:23:28.885Z,28.50
2017-10-26T13:25:57.975Z,24.80
2017-10-26T13:28:26.332Z,22.63
2017-10-26T13:30:54.642Z,20.73
2017-10-26T13:33:22.989Z,23.50
2017-10-26T13:35:51.310Z,21.87
2017-10-26T13:38:19.674Z,21.70
2017-10-26T13:40:48.759Z,24.67
2017-10-26T13:43:17.860Z,23.13
2017-10-26T13:45:46.919Z,23.07
2017-10-26T13:48:15.258Z,23.50
2017-10-26T13:50:43.557Z,23.77
2017-10-26T13:53:12.106Z,27.40
2017-10-26T13:55:41.170Z,22.40
2017-10-26T13:58:10.290Z,21.53
2017-10-26T14:00:39.370Z,22.07
2017-10-26T14:03:08.338Z,19.63
2017-10-26T14:05:37.459Z,21.33
2017-10-26T14:08:05.774Z,20.03
2017-10-26T14:10:35.007Z,23.30
2017-10-26T14:13:03.334Z,21.50
2017-10-26T14:15:31.650Z,16.90
2017-10-26T14:18:00.698Z,18.60
2017-10-26T14:20:29.023Z,20.67
2017-10-26T14:22:57.359Z,21.03
2017-10-26T14:25:26.469Z,21.67
2017-10-26T14:27:54.803Z,21.73
2017-10-26T14:30:23.898Z,19.23
2017-10-26T14:32:52.218Z,21.53
2017-10-26T14:35:20.531Z,18.23
2017-10-26T14:37:48.858Z,20.27
2017-10-26T14:40:17.177Z,18.50
2017-10-26T14:42:45.546Z,18.30
2017-10-26T14:45:13.870Z,18.07
2017-10-26T14:47:42.229Z,19.30
2017-10-26T14:50:11.339Z,18.57
2017-10-26T14:52:40.397Z,21.17
2017-10-26T14:55:08.745Z,18.93
2017-10-26T14:57:37.051Z,19.77
2017-10-26T15:00:05.386Z,21.33
2017-10-26T15:02:33.731Z,18.23
2017-10-26T15:05:02.834Z,20.40
2017-10-26T15:07:31.176Z,18.70
2017-10-26T15:09:59.511Z,18.53
2017-10-26T15:12:27.803Z,21.50
2017-10-26T15:14:56.163Z,19.00
2017-10-26T15:17:24.482Z,19.07
2017-10-26T15:19:53.589Z,19.40
2017-10-26T15:22:21.914Z,18.50
2017-10-26T15:24:50.296Z,19.67
2017-10-26T15:27:18.635Z,17.83
2017-10-26T15:29:47.721Z,18.83
2017-10-26T15:32:16.846Z,18.23
2017-10-26T15:34:45.165Z,17.73
2017-10-26T15:37:13.519Z,18.70
2017-10-26T15:39:41.816Z,19.47
2017-10-26T15:42:10.158Z,18.93
2017-10-26T15:44:38.514Z,19.37
2017-10-26T15:47:07.583Z,19.13
2017-10-26T15:49:35.997Z,20.27
2017-10-26T15:52:05.090Z,20.93
2017-10-26T15:54:33.418Z,19.20
2017-10-26T15:57:01.770Z,21.07
2017-10-26T15:59:30.127Z,23.53
2017-10-26T16:01:59.192Z,22.20
2017-10-26T16:04:28.216Z,23.20
2017-10-26T16:06:56.548Z,21.47
2017-10-26T16:09:24.858Z,22.17
2017-10-26T16:11:53.960Z,19.00
2017-10-26T16:14:23.051Z,22.80
2017-10-26T16:16:52.142Z,22.63
2017-10-26T16:19:20.444Z,20.37
2017-10-26T16:21:48.857Z,21.70
2017-10-26T16:24:17.190Z,22.50
2017-10-26T16:26:45.608Z,20.83
2017-10-26T16:29:13.931Z,20.43
2017-10-26T16:31:43.014Z,21.30
2017-10-26T16:34:12.126Z,20.87
2017-10-26T16:36:41.217Z,20.63
2017-10-26T16:39:10.335Z,21.87
2017-10-26T16:41:38.682Z,20.73
2017-10-26T16:44:07.056Z,21.83
2017-10-26T16:46:36.132Z,22.97
2017-10-26T16:49:04.435Z,23.47
2017-10-26T16:51:33.528Z,22.20
2017-10-26T16:54:02.605Z,23.50
2017-10-26T16:56:30.928Z,22.33
2017-10-26T16:58:59.236Z,22.23
2017-10-26T17:01:27.627Z,22.53
2017-10-26T17:03:55.940Z,21.50
2017-10-26T17:06:24.250Z,23.00
2017-10-26T17:08:52.588Z,25.80
2017-10-26T17:11:21.674Z,23.07
2017-10-26T17:13:50.017Z,21.67
2017-10-26T17:16:18.338Z,20.67
2017-10-26T17:18:46.672Z,21.40
2017-10-26T17:21:14.994Z,24.17
2017-10-26T17:23:44.099Z,22.40
2017-10-26T17:26:12.501Z,21.67
2017-10-26T17:28:41.967Z,22.33
2017-10-26T17:31:10.315Z,21.87
2017-10-26T17:33:39.433Z,21.97
2017-10-26T17:36:07.792Z,20.57
2017-10-26T17:38:36.098Z,22.93
2017-10-26T17:41:04.602Z,20.60
2017-10-26T17:43:33.048Z,21.80
2017-10-26T17:46:01.439Z,21.43
2017-10-26T17:48:29.778Z,20.80
2017-10-26T17:50:58.089Z,20.00
2017-10-26T17:53:27.189Z,20.87
2017-10-26T17:55:55.519Z,19.60
2017-10-26T17:58:23.917Z,19.93
2017-10-26T18:00:52.332Z,19.10
2017-10-26T18:03:20.668Z,20.70
2017-10-26T18:05:49.002Z,22.13
2017-10-26T18:08:17.531Z,19.77
2017-10-26T18:10:45.852Z,20.07
2017-10-26T18:13:14.348Z,21.43
2017-10-26T18:15:42.694Z,20.30
2017-10-26T18:20:46.617Z,20.40
2017-10-26T18:23:15.010Z,19.70
2017-10-26T18:25:43.381Z,19.20
2017-10-26T18:28:11.720Z,20.87
2017-10-26T18:30:40.081Z,20.60
2017-10-26T18:33:08.417Z,19.47
2017-10-26T18:35:36.834Z,18.23
2017-10-26T18:38:05.207Z,21.37
2017-10-26T18:40:33.616Z,20.50
2017-10-26T18:43:01.963Z,19.53
2017-10-26T18:45:30.280Z,20.40
2017-10-26T18:47:58.609Z,19.70
2017-10-26T18:50:26.936Z,20.17
2017-10-26T18:52:55.289Z,18.93
2017-10-26T18:55:23.599Z,19.13
2017-10-26T18:57:52.722Z,20.33
2017-10-26T19:00:21.097Z,20.60
2017-10-26T19:02:49.434Z,21.40
2017-10-26T19:05:17.803Z,20.70
2017-10-26T19:07:46.911Z,20.57
2017-10-26T19:10:15.289Z,20.10
2017-10-26T19:12:43.630Z,19.70
2017-10-26T19:15:11.950Z,19.40
2017-10-26T19:17:40.268Z,19.17
2017-10-26T19:20:08.625Z,19.73
2017-10-26T19:22:36.959Z,19.70
2017-10-26T19:25:05.260Z,20.77
2017-10-26T19:27:33.634Z,19.37
2017-10-26T19:30:01.919Z,21.40
2017-10-26T19:32:31.013Z,20.20
2017-10-26T19:35:00.073Z,21.73
2017-10-26T19:37:28.400Z,19.10
2017-10-26T19:39:56.755Z,20.23
2017-10-26T19:42:25.861Z,22.30
2017-10-26T19:44:54.918Z,22.73
2017-10-26T19:47:24.045Z,21.33
2017-10-26T19:49:52.397Z,19.37
2017-10-26T19:52:21.618Z,19.63
2017-10-26T19:54:50.778Z,20.70
2017-10-26T19:57:19.061Z,19.77
2017-10-26T19:59:47.402Z,18.53
2017-10-26T20:02:15.708Z,17.37
2017-10-26T20:04:44.871Z,17.93
2017-10-26T20:07:13.970Z,18.93
2017-10-26T20:09:43.167Z,18.73
2017-10-26T20:12:11.483Z,20.00
2017-10-26T20:14:40.579Z,20.60
2017-10-26T20:17:08.915Z,20.67
2017-10-26T20:19:37.242Z,20.70
2017-10-26T20:22:06.360Z,21.83
2017-10-26T20:24:34.797Z,21.40
2017-10-26T20:27:03.932Z,20.60
2017-10-26T20:29:33.019Z,20.80
2017-10-26T20:32:02.198Z,21.13
2017-10-26T20:34:31.849Z,19.17
2017-10-26T20:37:00.227Z,21.47
2017-10-26T20:39:28.546Z,19.67
2017-10-26T20:41:57.651Z,21.80
2017-10-26T20:44:25.971Z,20.47
2017-10-26T20:46:54.266Z,19.07
2017-10-26T20:49:28.317Z,21.67
2017-10-26T20:52:02.250Z,20.93
2017-10-26T20:54:36.352Z,21.53
2017-10-26T20:57:11.168Z,18.77
2017-10-26T20:59:45.148Z,19.57
2017-10-26T21:02:19.204Z,20.00
2017-10-26T21:04:54.134Z,19.60
2017-10-26T21:07:28.065Z,20.80
2017-10-26T21:09:56.438Z,21.80
2017-10-26T21:25:49.380Z,18.57
2017-10-26T21:28:17.750Z,16.53
2017-10-26T21:30:46.926Z,15.03
2017-10-26T21:33:15.247Z,17.73
2017-10-26T21:35:43.603Z,18.47
2017-10-26T21:38:11.952Z,17.60
2017-10-26T21:40:41.059Z,17.20
2017-10-26T21:43:09.426Z,16.33
2017-10-26T21:45:37.815Z,14.70
2017-10-26T21:48:07.033Z,14.80
2017-10-26T21:50:35.335Z,13.87
2017-10-26T21:53:03.643Z,15.53
2017-10-26T21:55:32.033Z,13.70
2017-10-26T21:58:01.119Z,15.57
2017-10-26T22:00:30.238Z,14.20
2017-10-26T22:02:58.616Z,13.80
2017-10-26T22:05:26.967Z,14.00
2017-10-26T22:07:56.086Z,14.00
2017-10-26T22:10:25.163Z,15.80
2017-10-26T22:12:54.259Z,13.80
2017-10-26T22:15:22.639Z,13.13
2017-10-26T22:17:50.980Z,15.97
2017-10-26T22:20:19.311Z,13.07
2017-10-26T22:22:47.667Z,12.73
2017-10-26T22:25:16.285Z,14.43
2017-10-26T22:27:44.657Z,13.53
2017-10-26T22:30:12.976Z,12.73
2017-10-26T22:32:41.279Z,12.43
2017-10-26T22:35:09.603Z,12.43
2017-10-26T22:37:37.905Z,11.43
2017-10-26T22:40:06.228Z,12.53
2017-10-26T22:42:35.305Z,12.30
2017-10-26T22:45:04.431Z,12.30
2017-10-26T22:47:32.753Z,10.87
2017-10-26T22:50:01.081Z,12.67
2017-10-26T22:52:29.426Z,13.70
2017-10-26T22:54:57.723Z,12.10
2017-10-26T22:57:26.088Z,12.60
2017-10-26T22:59:54.393Z,11.63
2017-10-26T23:02:23.465Z,13.30
2017-10-26T23:04:51.798Z,12.07
2017-10-26T23:07:20.138Z,11.80
2017-10-26T23:09:49.202Z,11.17
2017-10-26T23:12:18.295Z,12.17
2017-10-26T23:14:46.630Z,12.30
2017-10-26T23:17:14.924Z,12.93
2017-10-26T23:19:43.254Z,12.03
2017-10-26T23:22:12.323Z,10.23
2017-10-26T23:24:40.669Z,10.70
2017-10-26T23:27:09.051Z,11.03
2017-10-26T23:29:37.376Z,14.17
2017-10-26T23:32:06.471Z,11.37
2017-10-26T23:34:34.780Z,9.63
2017-10-26T23:37:03.101Z,8.90
2017-10-26T23:39:31.400Z,9.07
2017-10-26T23:41:59.751Z,12.07
2017-10-26T23:44:28.053Z,8.33
2017-10-26T23:46:56.363Z,9.77
2017-10-26T23:49:24.645Z,8.00
2017-10-26T23:51:52.981Z,9.03
2017-10-26T23:54:22.055Z,9.13
2017-10-26T23:56:50.377Z,7.67
2017-10-26T23:59:19.435Z,8.23
